KINT/INT METAR and TAF weather

Enter ICAO airport designator
Station Type Date Time Source
KINT METAR 2019/06/20 06:54 UTC NOAA

KINT 200654Z AUTO 20004KT 10SM CLR 23/21 A2974 RMK AO2 SLP060 T02330211 TSNO


Station Type Date Time Source
KINT Decoded METAR 2019/06/20 06:54 UTC NOAA

WINSTON SALEM SMITH REYNOLDS, NC, United States (KINT) 36-08N 80-14W 291M
Jun 20, 2019 - 02:54 AM EDT / 2019.06.20 0654 UTC
Wind: from the SSW (200 degrees) at 5 MPH (4 KT):0
Visibility: 10 mile(s):0
Sky conditions: clear
Temperature: 73.9 F (23.3 C)
Dew Point: 70.0 F (21.1 C)
Relative Humidity: 87%
Pressure (altimeter): 29.74 in. Hg (1007 hPa)
ob: KINT 200654Z AUTO 20004KT 10SM CLR 23/21 A2974 RMK AO2 SLP060 T02330211 TSNO
cycle: 7

Station Type Date Time Source
KINT TAF 2019/06/20 06:48 UTC NOAA

TAF KINT 200540Z 2006/2106 22007KT P6SM VCSH FEW045 SCT100 SCT250
FM201500 24012G19KT P6SM SCT040 SCT250
FM201800 27014G22KT P6SM VCTS BKN040CB OVC100 PROB30 2019/2022 25030G45KT 1 1/2SM +TSRAGR SCT025 BKN045CB OVC090CB

Example: see airport list